sensor_id;sensor_type;location;lat;lon;timestamp;pressure;altitude;pressure_sealevel;temperature
12753;BMP180;6440;44.616;2.032;2022-09-01T00:01:56;98885;;;20.60
12753;BMP180;6440;44.616;2.032;2022-09-01T00:04:24;98889;;;20.60
12753;BMP180;6440;44.616;2.032;2022-09-01T00:06:53;98883;;;20.50
12753;BMP180;6440;44.616;2.032;2022-09-01T00:09:22;98892;;;20.50
12753;BMP180;6440;44.616;2.032;2022-09-01T00:11:51;98888;;;20.50
12753;BMP180;6440;44.616;2.032;2022-09-01T00:14:19;98885;;;20.50
12753;BMP180;6440;44.616;2.032;2022-09-01T00:16:46;98879;;;20.50
12753;BMP180;6440;44.616;2.032;2022-09-01T00:19:15;98881;;;20.30
12753;BMP180;6440;44.616;2.032;2022-09-01T00:21:43;98876;;;20.20
12753;BMP180;6440;44.616;2.032;2022-09-01T00:24:12;98879;;;20.10
12753;BMP180;6440;44.616;2.032;2022-09-01T00:26:40;98880;;;20.10
12753;BMP180;6440;44.616;2.032;2022-09-01T00:29:08;98878;;;20.00
12753;BMP180;6440;44.616;2.032;2022-09-01T00:31:37;98876;;;19.90
12753;BMP180;6440;44.616;2.032;2022-09-01T00:34:05;98876;;;19.90
12753;BMP180;6440;44.616;2.032;2022-09-01T00:36:33;98876;;;19.90
12753;BMP180;6440;44.616;2.032;2022-09-01T00:39:02;98870;;;19.80
12753;BMP180;6440;44.616;2.032;2022-09-01T00:41:31;98869;;;19.70
12753;BMP180;6440;44.616;2.032;2022-09-01T00:44:00;98873;;;19.70
12753;BMP180;6440;44.616;2.032;2022-09-01T00:46:29;98875;;;19.60
12753;BMP180;6440;44.616;2.032;2022-09-01T00:49:03;98873;;;19.60
12753;BMP180;6440;44.616;2.032;2022-09-01T00:51:30;98873;;;19.50
12753;BMP180;6440;44.616;2.032;2022-09-01T00:53:58;98863;;;19.40
12753;BMP180;6440;44.616;2.032;2022-09-01T00:56:26;98879;;;19.40
12753;BMP180;6440;44.616;2.032;2022-09-01T00:58:54;98879;;;19.40
12753;BMP180;6440;44.616;2.032;2022-09-01T01:01:23;98875;;;19.40
12753;BMP180;6440;44.616;2.032;2022-09-01T01:03:52;98891;;;19.40
12753;BMP180;6440;44.616;2.032;2022-09-01T01:06:22;98876;;;19.40
12753;BMP180;6440;44.616;2.032;2022-09-01T01:08:50;98877;;;19.40
12753;BMP180;6440;44.616;2.032;2022-09-01T01:11:19;98871;;;19.40
12753;BMP180;6440;44.616;2.032;2022-09-01T01:13:53;98877;;;19.50
12753;BMP180;6440;44.616;2.032;2022-09-01T01:16:19;98891;;;19.40
12753;BMP180;6440;44.616;2.032;2022-09-01T01:18:47;98884;;;19.40
12753;BMP180;6440;44.616;2.032;2022-09-01T01:21:19;98880;;;19.30
12753;BMP180;6440;44.616;2.032;2022-09-01T01:23:56;98880;;;19.30
12753;BMP180;6440;44.616;2.032;2022-09-01T01:26:22;98878;;;19.20
12753;BMP180;6440;44.616;2.032;2022-09-01T01:28:51;98884;;;19.10
12753;BMP180;6440;44.616;2.032;2022-09-01T01:31:20;98883;;;19.10
12753;BMP180;6440;44.616;2.032;2022-09-01T01:33:48;98884;;;19.00
12753;BMP180;6440;44.616;2.032;2022-09-01T01:36:20;98880;;;19.00
12753;BMP180;6440;44.616;2.032;2022-09-01T01:38:48;98882;;;19.10
12753;BMP180;6440;44.616;2.032;2022-09-01T01:41:15;98878;;;19.10
12753;BMP180;6440;44.616;2.032;2022-09-01T01:43:44;98882;;;19.10
12753;BMP180;6440;44.616;2.032;2022-09-01T01:46:12;98875;;;19.10
12753;BMP180;6440;44.616;2.032;2022-09-01T01:48:40;98877;;;19.10
12753;BMP180;6440;44.616;2.032;2022-09-01T01:51:08;98876;;;19.00
12753;BMP180;6440;44.616;2.032;2022-09-01T01:53:36;98873;;;19.00
12753;BMP180;6440;44.616;2.032;2022-09-01T01:56:04;98871;;;18.90
12753;BMP180;6440;44.616;2.032;2022-09-01T01:58:33;98878;;;18.90
12753;BMP180;6440;44.616;2.032;2022-09-01T02:01:01;98879;;;18.80
12753;BMP180;6440;44.616;2.032;2022-09-01T02:03:31;98895;;;18.80
12753;BMP180;6440;44.616;2.032;2022-09-01T02:05:57;98893;;;18.80
12753;BMP180;6440;44.616;2.032;2022-09-01T02:08:26;98890;;;18.70
12753;BMP180;6440;44.616;2.032;2022-09-01T02:10:55;98885;;;18.60
12753;BMP180;6440;44.616;2.032;2022-09-01T02:13:23;98896;;;18.70
12753;BMP180;6440;44.616;2.032;2022-09-01T02:15:52;98894;;;18.80
12753;BMP180;6440;44.616;2.032;2022-09-01T02:18:22;98899;;;18.70
12753;BMP180;6440;44.616;2.032;2022-09-01T02:20:49;98909;;;18.70
12753;BMP180;6440;44.616;2.032;2022-09-01T02:23:18;98906;;;18.70
12753;BMP180;6440;44.616;2.032;2022-09-01T02:25:45;98901;;;18.60
12753;BMP180;6440;44.616;2.032;2022-09-01T02:28:14;98908;;;18.60
12753;BMP180;6440;44.616;2.032;2022-09-01T02:30:44;98910;;;18.70
12753;BMP180;6440;44.616;2.032;2022-09-01T02:33:12;98912;;;18.50
12753;BMP180;6440;44.616;2.032;2022-09-01T02:35:41;98911;;;18.50
12753;BMP180;6440;44.616;2.032;2022-09-01T02:38:10;98900;;;18.40
12753;BMP180;6440;44.616;2.032;2022-09-01T02:40:39;98905;;;18.40
12753;BMP180;6440;44.616;2.032;2022-09-01T02:43:07;98900;;;18.50
12753;BMP180;6440;44.616;2.032;2022-09-01T02:45:36;98908;;;18.40
12753;BMP180;6440;44.616;2.032;2022-09-01T02:48:04;98904;;;18.30
12753;BMP180;6440;44.616;2.032;2022-09-01T02:50:34;98911;;;18.20
12753;BMP180;6440;44.616;2.032;2022-09-01T02:53:02;98911;;;18.20
12753;BMP180;6440;44.616;2.032;2022-09-01T02:55:30;98902;;;18.10
12753;BMP180;6440;44.616;2.032;2022-09-01T02:57:58;98901;;;18.10
12753;BMP180;6440;44.616;2.032;2022-09-01T03:00:27;98901;;;18.10
12753;BMP180;6440;44.616;2.032;2022-09-01T03:02:57;98896;;;18.10
12753;BMP180;6440;44.616;2.032;2022-09-01T03:05:27;98900;;;18.10
12753;BMP180;6440;44.616;2.032;2022-09-01T03:07:54;98894;;;18.20
12753;BMP180;6440;44.616;2.032;2022-09-01T03:10:23;98893;;;18.10
12753;BMP180;6440;44.616;2.032;2022-09-01T03:12:51;98898;;;17.90
12753;BMP180;6440;44.616;2.032;2022-09-01T03:15:19;98895;;;18.00
12753;BMP180;6440;44.616;2.032;2022-09-01T03:17:48;98896;;;18.00
12753;BMP180;6440;44.616;2.032;2022-09-01T03:20:16;98901;;;17.50
12753;BMP180;6440;44.616;2.032;2022-09-01T03:22:45;98908;;;18.00
12753;BMP180;6440;44.616;2.032;2022-09-01T03:25:13;98912;;;17.90
12753;BMP180;6440;44.616;2.032;2022-09-01T03:27:42;98912;;;17.80
12753;BMP180;6440;44.616;2.032;2022-09-01T03:30:12;98904;;;17.80
12753;BMP180;6440;44.616;2.032;2022-09-01T03:32:41;98906;;;17.70
12753;BMP180;6440;44.616;2.032;2022-09-01T03:35:10;98901;;;17.70
12753;BMP180;6440;44.616;2.032;2022-09-01T03:37:38;98899;;;17.70
12753;BMP180;6440;44.616;2.032;2022-09-01T03:40:08;98898;;;17.70
12753;BMP180;6440;44.616;2.032;2022-09-01T03:42:37;98887;;;17.60
12753;BMP180;6440;44.616;2.032;2022-09-01T03:45:07;98883;;;17.60
12753;BMP180;6440;44.616;2.032;2022-09-01T03:47:35;98878;;;17.60
12753;BMP180;6440;44.616;2.032;2022-09-01T03:50:10;98877;;;17.60
12753;BMP180;6440;44.616;2.032;2022-09-01T03:52:40;98882;;;17.60
12753;BMP180;6440;44.616;2.032;2022-09-01T03:55:09;98896;;;17.40
12753;BMP180;6440;44.616;2.032;2022-09-01T03:57:38;98898;;;17.40
12753;BMP180;6440;44.616;2.032;2022-09-01T04:00:09;98897;;;17.30
12753;BMP180;6440;44.616;2.032;2022-09-01T04:02:38;98900;;;17.30
12753;BMP180;6440;44.616;2.032;2022-09-01T04:05:07;98903;;;17.30
12753;BMP180;6440;44.616;2.032;2022-09-01T04:07:36;98899;;;17.30
12753;BMP180;6440;44.616;2.032;2022-09-01T04:10:06;98902;;;17.30
12753;BMP180;6440;44.616;2.032;2022-09-01T04:12:35;98894;;;17.40
12753;BMP180;6440;44.616;2.032;2022-09-01T04:15:04;98890;;;17.30
12753;BMP180;6440;44.616;2.032;2022-09-01T04:17:32;98915;;;17.30
12753;BMP180;6440;44.616;2.032;2022-09-01T04:20:08;98903;;;17.20
12753;BMP180;6440;44.616;2.032;2022-09-01T04:22:37;98899;;;17.30
12753;BMP180;6440;44.616;2.032;2022-09-01T04:25:07;98898;;;17.30
12753;BMP180;6440;44.616;2.032;2022-09-01T04:27:36;98893;;;17.30
12753;BMP180;6440;44.616;2.032;2022-09-01T04:30:08;98895;;;17.20
12753;BMP180;6440;44.616;2.032;2022-09-01T04:32:35;98730;;;17.10
12753;BMP180;6440;44.616;2.032;2022-09-01T04:35:05;98892;;;17.00
12753;BMP180;6440;44.616;2.032;2022-09-01T04:37:33;98900;;;16.90
12753;BMP180;6440;44.616;2.032;2022-09-01T04:40:03;98898;;;16.90
12753;BMP180;6440;44.616;2.032;2022-09-01T04:42:33;98894;;;16.90
12753;BMP180;6440;44.616;2.032;2022-09-01T04:45:01;98888;;;16.90
12753;BMP180;6440;44.616;2.032;2022-09-01T04:47:29;98886;;;17.00
12753;BMP180;6440;44.616;2.032;2022-09-01T04:49:58;98890;;;17.00
12753;BMP180;6440;44.616;2.032;2022-09-01T04:52:26;98894;;;17.00
12753;BMP180;6440;44.616;2.032;2022-09-01T04:54:54;98888;;;17.00
12753;BMP180;6440;44.616;2.032;2022-09-01T04:57:23;98894;;;17.00
12753;BMP180;6440;44.616;2.032;2022-09-01T04:59:51;98891;;;17.10
12753;BMP180;6440;44.616;2.032;2022-09-01T05:02:20;98894;;;17.20
12753;BMP180;6440;44.616;2.032;2022-09-01T05:04:49;98893;;;17.30
12753;BMP180;6440;44.616;2.032;2022-09-01T05:07:18;98889;;;17.30
12753;BMP180;6440;44.616;2.032;2022-09-01T05:09:47;98888;;;17.30
12753;BMP180;6440;44.616;2.032;2022-09-01T05:12:16;98891;;;17.30
12753;BMP180;6440;44.616;2.032;2022-09-01T05:14:45;98893;;;17.30
12753;BMP180;6440;44.616;2.032;2022-09-01T05:17:12;98894;;;17.40
12753;BMP180;6440;44.616;2.032;2022-09-01T05:19:41;98900;;;17.40
12753;BMP180;6440;44.616;2.032;2022-09-01T05:22:08;98897;;;17.50
12753;BMP180;6440;44.616;2.032;2022-09-01T05:24:36;98896;;;17.60
12753;BMP180;6440;44.616;2.032;2022-09-01T05:27:04;98900;;;17.60
12753;BMP180;6440;44.616;2.032;2022-09-01T05:29:32;98902;;;17.60
12753;BMP180;6440;44.616;2.032;2022-09-01T05:32:01;98897;;;17.70
12753;BMP180;6440;44.616;2.032;2022-09-01T05:34:30;98907;;;17.80
12753;BMP180;6440;44.616;2.032;2022-09-01T05:36:58;98913;;;17.90
12753;BMP180;6440;44.616;2.032;2022-09-01T05:39:26;98920;;;18.00
12753;BMP180;6440;44.616;2.032;2022-09-01T05:41:55;98906;;;18.10
12753;BMP180;6440;44.616;2.032;2022-09-01T05:44:23;98913;;;18.00
12753;BMP180;6440;44.616;2.032;2022-09-01T05:46:51;98915;;;18.10
12753;BMP180;6440;44.616;2.032;2022-09-01T05:49:20;98916;;;18.20
12753;BMP180;6440;44.616;2.032;2022-09-01T05:51:49;98921;;;18.30
12753;BMP180;6440;44.616;2.032;2022-09-01T05:54:19;98923;;;18.30
12753;BMP180;6440;44.616;2.032;2022-09-01T05:56:46;98926;;;18.40
12753;BMP180;6440;44.616;2.032;2022-09-01T05:59:15;98925;;;18.50
12753;BMP180;6440;44.616;2.032;2022-09-01T06:01:43;98922;;;18.50
12753;BMP180;6440;44.616;2.032;2022-09-01T06:04:12;98928;;;18.50
12753;BMP180;6440;44.616;2.032;2022-09-01T06:06:42;98930;;;18.60
12753;BMP180;6440;44.616;2.032;2022-09-01T06:09:09;98927;;;18.60
12753;BMP180;6440;44.616;2.032;2022-09-01T06:11:37;98932;;;18.70
12753;BMP180;6440;44.616;2.032;2022-09-01T06:14:06;98932;;;18.80
12753;BMP180;6440;44.616;2.032;2022-09-01T06:16:34;98931;;;18.90
12753;BMP180;6440;44.616;2.032;2022-09-01T06:19:02;98933;;;19.00
12753;BMP180;6440;44.616;2.032;2022-09-01T06:21:31;98934;;;19.00
12753;BMP180;6440;44.616;2.032;2022-09-01T06:23:59;98931;;;19.10
12753;BMP180;6440;44.616;2.032;2022-09-01T06:26:29;98933;;;19.20
12753;BMP180;6440;44.616;2.032;2022-09-01T06:28:58;98939;;;19.20
12753;BMP180;6440;44.616;2.032;2022-09-01T06:31:25;98941;;;19.30
12753;BMP180;6440;44.616;2.032;2022-09-01T06:33:53;98945;;;19.40
12753;BMP180;6440;44.616;2.032;2022-09-01T06:36:21;98941;;;19.40
12753;BMP180;6440;44.616;2.032;2022-09-01T06:38:49;98947;;;19.50
12753;BMP180;6440;44.616;2.032;2022-09-01T06:41:17;98942;;;19.50
12753;BMP180;6440;44.616;2.032;2022-09-01T06:43:46;98938;;;19.70
12753;BMP180;6440;44.616;2.032;2022-09-01T06:46:15;98957;;;19.80
12753;BMP180;6440;44.616;2.032;2022-09-01T06:48:42;98950;;;19.80
12753;BMP180;6440;44.616;2.032;2022-09-01T06:51:17;98951;;;19.80
12753;BMP180;6440;44.616;2.032;2022-09-01T06:53:43;98952;;;19.90
12753;BMP180;6440;44.616;2.032;2022-09-01T06:56:11;98948;;;20.00
12753;BMP180;6440;44.616;2.032;2022-09-01T06:58:40;98951;;;20.10
12753;BMP180;6440;44.616;2.032;2022-09-01T07:01:08;98958;;;20.30
12753;BMP180;6440;44.616;2.032;2022-09-01T07:03:36;98963;;;20.30
12753;BMP180;6440;44.616;2.032;2022-09-01T07:06:05;98961;;;20.40
12753;BMP180;6440;44.616;2.032;2022-09-01T07:08:33;98956;;;20.40
12753;BMP180;6440;44.616;2.032;2022-09-01T07:11:02;98955;;;20.40
12753;BMP180;6440;44.616;2.032;2022-09-01T07:13:31;98952;;;20.50
12753;BMP180;6440;44.616;2.032;2022-09-01T07:16:00;98957;;;20.50
12753;BMP180;6440;44.616;2.032;2022-09-01T07:18:28;98953;;;20.50
12753;BMP180;6440;44.616;2.032;2022-09-01T07:20:56;98952;;;20.60
12753;BMP180;6440;44.616;2.032;2022-09-01T07:23:25;98950;;;20.70
12753;BMP180;6440;44.616;2.032;2022-09-01T07:25:53;98957;;;20.80
12753;BMP180;6440;44.616;2.032;2022-09-01T07:28:22;98964;;;20.90
12753;BMP180;6440;44.616;2.032;2022-09-01T07:30:51;98955;;;20.90
12753;BMP180;6440;44.616;2.032;2022-09-01T07:33:19;98959;;;20.80
12753;BMP180;6440;44.616;2.032;2022-09-01T07:35:46;98968;;;20.80
12753;BMP180;6440;44.616;2.032;2022-09-01T07:38:15;98965;;;20.80
12753;BMP180;6440;44.616;2.032;2022-09-01T07:40:44;98966;;;20.90
12753;BMP180;6440;44.616;2.032;2022-09-01T07:43:16;98966;;;20.90
12753;BMP180;6440;44.616;2.032;2022-09-01T07:45:44;98965;;;21.00
12753;BMP180;6440;44.616;2.032;2022-09-01T07:48:11;98970;;;21.00
12753;BMP180;6440;44.616;2.032;2022-09-01T07:50:41;98970;;;21.00
12753;BMP180;6440;44.616;2.032;2022-09-01T07:53:09;98965;;;21.00
12753;BMP180;6440;44.616;2.032;2022-09-01T07:55:40;98962;;;20.90
12753;BMP180;6440;44.616;2.032;2022-09-01T07:58:09;98966;;;20.90
12753;BMP180;6440;44.616;2.032;2022-09-01T08:00:38;98961;;;21.00
12753;BMP180;6440;44.616;2.032;2022-09-01T08:03:05;98967;;;21.10
12753;BMP180;6440;44.616;2.032;2022-09-01T08:05:34;98969;;;21.10
12753;BMP180;6440;44.616;2.032;2022-09-01T08:08:03;98968;;;21.20
12753;BMP180;6440;44.616;2.032;2022-09-01T08:10:31;98972;;;21.20
12753;BMP180;6440;44.616;2.032;2022-09-01T08:13:00;98968;;;21.20
12753;BMP180;6440;44.616;2.032;2022-09-01T08:15:28;98973;;;21.20
12753;BMP180;6440;44.616;2.032;2022-09-01T08:17:58;98968;;;21.20
12753;BMP180;6440;44.616;2.032;2022-09-01T08:20:26;98974;;;21.20
12753;BMP180;6440;44.616;2.032;2022-09-01T08:22:55;98978;;;21.30
12753;BMP180;6440;44.616;2.032;2022-09-01T08:25:23;98969;;;21.40
12753;BMP180;6440;44.616;2.032;2022-09-01T08:27:52;98979;;;21.40
12753;BMP180;6440;44.616;2.032;2022-09-01T08:30:21;98977;;;21.30
12753;BMP180;6440;44.616;2.032;2022-09-01T08:32:50;98977;;;21.40
12753;BMP180;6440;44.616;2.032;2022-09-01T08:35:19;98981;;;21.50
12753;BMP180;6440;44.616;2.032;2022-09-01T08:37:48;98977;;;21.50
12753;BMP180;6440;44.616;2.032;2022-09-01T08:40:17;98985;;;21.50
12753;BMP180;6440;44.616;2.032;2022-09-01T08:45:26;98988;;;21.50
12753;BMP180;6440;44.616;2.032;2022-09-01T08:47:54;98995;;;21.50
12753;BMP180;6440;44.616;2.032;2022-09-01T08:50:22;98979;;;21.60
12753;BMP180;6440;44.616;2.032;2022-09-01T08:52:57;98975;;;21.70
12753;BMP180;6440;44.616;2.032;2022-09-01T08:55:30;98976;;;21.80
12753;BMP180;6440;44.616;2.032;2022-09-01T08:57:55;98988;;;21.10
12753;BMP180;6440;44.616;2.032;2022-09-01T09:00:24;98987;;;21.80
12753;BMP180;6440;44.616;2.032;2022-09-01T09:03:17;98981;;;21.80
12753;BMP180;6440;44.616;2.032;2022-09-01T09:06:09;98985;;;21.80
12753;BMP180;6440;44.616;2.032;2022-09-01T09:08:53;98979;;;22.00
12753;BMP180;6440;44.616;2.032;2022-09-01T09:11:40;98988;;;22.20
12753;BMP180;6440;44.616;2.032;2022-09-01T09:14:14;98970;;;22.20
12753;BMP180;6440;44.616;2.032;2022-09-01T09:16:41;98977;;;22.20
12753;BMP180;6440;44.616;2.032;2022-09-01T09:19:32;98975;;;22.40
12753;BMP180;6440;44.616;2.032;2022-09-01T09:21:59;98974;;;22.30
12753;BMP180;6440;44.616;2.032;2022-09-01T09:24:42;98969;;;22.30
12753;BMP180;6440;44.616;2.032;2022-09-01T09:27:25;98974;;;22.30
12753;BMP180;6440;44.616;2.032;2022-09-01T09:29:53;98975;;;22.50
12753;BMP180;6440;44.616;2.032;2022-09-01T09:32:20;98978;;;22.60
12753;BMP180;6440;44.616;2.032;2022-09-01T09:34:48;98961;;;22.80
12753;BMP180;6440;44.616;2.032;2022-09-01T09:37:24;98964;;;23.00
12753;BMP180;6440;44.616;2.032;2022-09-01T09:40:03;98962;;;23.20
12753;BMP180;6440;44.616;2.032;2022-09-01T09:42:30;98968;;;23.50
12753;BMP180;6440;44.616;2.032;2022-09-01T09:44:58;98965;;;23.40
12753;BMP180;6440;44.616;2.032;2022-09-01T09:47:34;98958;;;23.50
12753;BMP180;6440;44.616;2.032;2022-09-01T09:50:26;98958;;;23.70
12753;BMP180;6440;44.616;2.032;2022-09-01T09:53:08;98960;;;24.20
12753;BMP180;6440;44.616;2.032;2022-09-01T09:55:26;98954;;;24.60
12753;BMP180;6440;44.616;2.032;2022-09-01T09:57:56;98953;;;24.60
12753;BMP180;6440;44.616;2.032;2022-09-01T10:00:28;98945;;;24.80
12753;BMP180;6440;44.616;2.032;2022-09-01T10:02:58;98953;;;25.10
12753;BMP180;6440;44.616;2.032;2022-09-01T10:05:34;98954;;;25.30
12753;BMP180;6440;44.616;2.032;2022-09-01T10:07:59;98950;;;25.70
12753;BMP180;6440;44.616;2.032;2022-09-01T10:10:46;98947;;;25.90
12753;BMP180;6440;44.616;2.032;2022-09-01T10:13:16;98944;;;25.60
12753;BMP180;6440;44.616;2.032;2022-09-01T10:15:46;98936;;;25.70
12753;BMP180;6440;44.616;2.032;2022-09-01T10:18:13;98931;;;25.80
12753;BMP180;6440;44.616;2.032;2022-09-01T10:20:41;98929;;;25.80
12753;BMP180;6440;44.616;2.032;2022-09-01T10:23:08;98927;;;25.60
12753;BMP180;6440;44.616;2.032;2022-09-01T10:25:35;98922;;;25.40
12753;BMP180;6440;44.616;2.032;2022-09-01T10:28:10;98926;;;25.50
12753;BMP180;6440;44.616;2.032;2022-09-01T10:30:34;98922;;;25.80
12753;BMP180;6440;44.616;2.032;2022-09-01T10:33:03;98922;;;25.70
12753;BMP180;6440;44.616;2.032;2022-09-01T10:35:33;98928;;;25.90
12753;BMP180;6440;44.616;2.032;2022-09-01T10:38:01;98925;;;26.10
12753;BMP180;6440;44.616;2.032;2022-09-01T10:40:37;98927;;;26.10
12753;BMP180;6440;44.616;2.032;2022-09-01T10:43:22;98922;;;26.10
12753;BMP180;6440;44.616;2.032;2022-09-01T10:45:49;98919;;;26.30
12753;BMP180;6440;44.616;2.032;2022-09-01T10:48:29;98913;;;26.50
12753;BMP180;6440;44.616;2.032;2022-09-01T10:51:39;98910;;;26.80
12753;BMP180;6440;44.616;2.032;2022-09-01T10:54:02;98905;;;27.10
12753;BMP180;6440;44.616;2.032;2022-09-01T10:56:41;98909;;;27.30
12753;BMP180;6440;44.616;2.032;2022-09-01T10:59:25;98903;;;27.30
12753;BMP180;6440;44.616;2.032;2022-09-01T11:02:10;98904;;;27.60
12753;BMP180;6440;44.616;2.032;2022-09-01T11:05:09;98905;;;27.00
12753;BMP180;6440;44.616;2.032;2022-09-01T11:07:37;98906;;;27.30
12753;BMP180;6440;44.616;2.032;2022-09-01T11:10:43;98904;;;27.80
12753;BMP180;6440;44.616;2.032;2022-09-01T11:13:29;98911;;;28.10
12753;BMP180;6440;44.616;2.032;2022-09-01T11:15:55;98886;;;28.20
12753;BMP180;6440;44.616;2.032;2022-09-01T11:18:26;98883;;;27.70
12753;BMP180;6440;44.616;2.032;2022-09-01T11:20:52;98885;;;28.40
12753;BMP180;6440;44.616;2.032;2022-09-01T11:23:26;98886;;;28.60
12753;BMP180;6440;44.616;2.032;2022-09-01T11:25:58;98890;;;28.80
12753;BMP180;6440;44.616;2.032;2022-09-01T11:28:41;98888;;;29.00
12753;BMP180;6440;44.616;2.032;2022-09-01T11:31:13;98875;;;29.20
12753;BMP180;6440;44.616;2.032;2022-09-01T11:33:55;98878;;;29.00
12753;BMP180;6440;44.616;2.032;2022-09-01T11:36:29;98878;;;29.20
12753;BMP180;6440;44.616;2.032;2022-09-01T11:39:35;98877;;;29.40
12753;BMP180;6440;44.616;2.032;2022-09-01T11:42:06;98874;;;29.40
12753;BMP180;6440;44.616;2.032;2022-09-01T11:44:40;98870;;;29.60
12753;BMP180;6440;44.616;2.032;2022-09-01T11:47:09;98866;;;29.60
12753;BMP180;6440;44.616;2.032;2022-09-01T11:49:36;98864;;;29.80
12753;BMP180;6440;44.616;2.032;2022-09-01T11:52:04;98863;;;29.80
12753;BMP180;6440;44.616;2.032;2022-09-01T11:54:39;98863;;;29.80
12753;BMP180;6440;44.616;2.032;2022-09-01T11:57:19;98862;;;30.20
12753;BMP180;6440;44.616;2.032;2022-09-01T11:59:45;98858;;;30.10
12753;BMP180;6440;44.616;2.032;2022-09-01T12:02:21;98867;;;30.10
12753;BMP180;6440;44.616;2.032;2022-09-01T12:04:48;98862;;;29.70
12753;BMP180;6440;44.616;2.032;2022-09-01T12:09:55;98858;;;30.10
12753;BMP180;6440;44.616;2.032;2022-09-01T12:12:34;98848;;;29.90
12753;BMP180;6440;44.616;2.032;2022-09-01T12:15:03;98849;;;30.00
12753;BMP180;6440;44.616;2.032;2022-09-01T12:17:29;98846;;;30.00
12753;BMP180;6440;44.616;2.032;2022-09-01T12:20:17;98847;;;30.00
12753;BMP180;6440;44.616;2.032;2022-09-01T12:22:25;98843;;;30.00
12753;BMP180;6440;44.616;2.032;2022-09-01T12:24:53;98840;;;29.90
12753;BMP180;6440;44.616;2.032;2022-09-01T12:27:21;98832;;;29.90
12753;BMP180;6440;44.616;2.032;2022-09-01T12:29:50;98831;;;29.90
12753;BMP180;6440;44.616;2.032;2022-09-01T12:32:17;98826;;;30.10
12753;BMP180;6440;44.616;2.032;2022-09-01T12:34:46;98823;;;30.10
12753;BMP180;6440;44.616;2.032;2022-09-01T12:37:23;98817;;;30.10
12753;BMP180;6440;44.616;2.032;2022-09-01T12:39:54;98817;;;30.30
12753;BMP180;6440;44.616;2.032;2022-09-01T12:42:28;98817;;;30.20
12753;BMP180;6440;44.616;2.032;2022-09-01T12:44:55;98819;;;30.00
12753;BMP180;6440;44.616;2.032;2022-09-01T12:47:47;98807;;;30.00
12753;BMP180;6440;44.616;2.032;2022-09-01T12:50:31;98803;;;29.80
12753;BMP180;6440;44.616;2.032;2022-09-01T12:52:59;98813;;;29.70
12753;BMP180;6440;44.616;2.032;2022-09-01T12:55:28;98819;;;29.90
12753;BMP180;6440;44.616;2.032;2022-09-01T12:57:56;98813;;;30.20
12753;BMP180;6440;44.616;2.032;2022-09-01T13:00:28;98814;;;30.30
12753;BMP180;6440;44.616;2.032;2022-09-01T13:03:12;98808;;;30.20
12753;BMP180;6440;44.616;2.032;2022-09-01T13:05:40;98815;;;30.20
12753;BMP180;6440;44.616;2.032;2022-09-01T13:08:09;98799;;;30.30
12753;BMP180;6440;44.616;2.032;2022-09-01T13:10:38;98806;;;30.50
12753;BMP180;6440;44.616;2.032;2022-09-01T13:13:04;98796;;;30.40
12753;BMP180;6440;44.616;2.032;2022-09-01T13:15:32;98798;;;30.60
12753;BMP180;6440;44.616;2.032;2022-09-01T13:18:00;98798;;;30.50
12753;BMP180;6440;44.616;2.032;2022-09-01T13:20:29;98797;;;30.40
12753;BMP180;6440;44.616;2.032;2022-09-01T13:22:57;98788;;;30.60
12753;BMP180;6440;44.616;2.032;2022-09-01T13:25:25;98787;;;30.60
12753;BMP180;6440;44.616;2.032;2022-09-01T13:27:54;98782;;;30.80
12753;BMP180;6440;44.616;2.032;2022-09-01T13:30:22;98776;;;30.40
12753;BMP180;6440;44.616;2.032;2022-09-01T13:32:49;98765;;;30.30
12753;BMP180;6440;44.616;2.032;2022-09-01T13:35:18;98763;;;30.40
12753;BMP180;6440;44.616;2.032;2022-09-01T13:37:46;98759;;;30.30
12753;BMP180;6440;44.616;2.032;2022-09-01T13:40:14;98761;;;30.20
12753;BMP180;6440;44.616;2.032;2022-09-01T13:42:42;98752;;;30.20
12753;BMP180;6440;44.616;2.032;2022-09-01T13:45:10;98756;;;30.10
12753;BMP180;6440;44.616;2.032;2022-09-01T13:47:39;98760;;;30.20
12753;BMP180;6440;44.616;2.032;2022-09-01T13:50:08;98757;;;30.40
12753;BMP180;6440;44.616;2.032;2022-09-01T13:52:36;98751;;;30.10
12753;BMP180;6440;44.616;2.032;2022-09-01T13:55:04;98745;;;30.00
12753;BMP180;6440;44.616;2.032;2022-09-01T13:57:33;98747;;;30.20
12753;BMP180;6440;44.616;2.032;2022-09-01T14:00:02;98740;;;30.50
12753;BMP180;6440;44.616;2.032;2022-09-01T14:02:30;98736;;;30.50
12753;BMP180;6440;44.616;2.032;2022-09-01T14:04:59;98721;;;30.40
12753;BMP180;6440;44.616;2.032;2022-09-01T14:07:27;98727;;;30.40
12753;BMP180;6440;44.616;2.032;2022-09-01T14:09:56;98724;;;30.40
12753;BMP180;6440;44.616;2.032;2022-09-01T14:12:24;98731;;;30.40
12753;BMP180;6440;44.616;2.032;2022-09-01T14:14:53;98720;;;30.50
12753;BMP180;6440;44.616;2.032;2022-09-01T14:17:22;98726;;;30.50
12753;BMP180;6440;44.616;2.032;2022-09-01T14:19:50;98712;;;30.70
12753;BMP180;6440;44.616;2.032;2022-09-01T14:22:19;98711;;;30.40
12753;BMP180;6440;44.616;2.032;2022-09-01T14:24:47;98699;;;30.10
12753;BMP180;6440;44.616;2.032;2022-09-01T14:27:18;98700;;;30.10
12753;BMP180;6440;44.616;2.032;2022-09-01T14:29:49;98695;;;30.10
12753;BMP180;6440;44.616;2.032;2022-09-01T14:32:16;98701;;;30.10
12753;BMP180;6440;44.616;2.032;2022-09-01T14:34:44;98686;;;30.00
12753;BMP180;6440;44.616;2.032;2022-09-01T14:37:12;98687;;;30.10
12753;BMP180;6440;44.616;2.032;2022-09-01T14:39:41;98684;;;30.20
12753;BMP180;6440;44.616;2.032;2022-09-01T14:42:09;98686;;;30.30
12753;BMP180;6440;44.616;2.032;2022-09-01T14:44:37;98683;;;30.50
12753;BMP180;6440;44.616;2.032;2022-09-01T14:47:06;98673;;;30.50
12753;BMP180;6440;44.616;2.032;2022-09-01T14:49:34;98674;;;30.50
12753;BMP180;6440;44.616;2.032;2022-09-01T14:52:03;98674;;;30.50
12753;BMP180;6440;44.616;2.032;2022-09-01T14:54:31;98681;;;30.60
12753;BMP180;6440;44.616;2.032;2022-09-01T14:56:59;98677;;;30.60
12753;BMP180;6440;44.616;2.032;2022-09-01T14:59:27;98670;;;30.70
12753;BMP180;6440;44.616;2.032;2022-09-01T15:01:55;98683;;;30.70
12753;BMP180;6440;44.616;2.032;2022-09-01T15:04:24;98670;;;30.70
12753;BMP180;6440;44.616;2.032;2022-09-01T15:06:52;98667;;;30.70
12753;BMP180;6440;44.616;2.032;2022-09-01T15:09:20;98669;;;30.70
12753;BMP180;6440;44.616;2.032;2022-09-01T15:11:48;98656;;;30.70
12753;BMP180;6440;44.616;2.032;2022-09-01T15:14:17;98658;;;30.80
12753;BMP180;6440;44.616;2.032;2022-09-01T15:16:46;98657;;;30.70
12753;BMP180;6440;44.616;2.032;2022-09-01T15:19:15;98662;;;30.90
12753;BMP180;6440;44.616;2.032;2022-09-01T15:21:43;98660;;;31.00
12753;BMP180;6440;44.616;2.032;2022-09-01T15:24:11;98664;;;31.00